createdAt,value
2019-05-18T00:01:55.884Z,5.47
2019-05-18T00:04:22.343Z,5.23
2019-05-18T00:06:48.860Z,5.53
2019-05-18T00:09:15.426Z,5.93
2019-05-18T00:11:41.919Z,6.13
2019-05-18T00:14:08.650Z,5.77
2019-05-18T00:16:35.207Z,6.00
2019-05-18T00:19:01.816Z,5.57
2019-05-18T00:21:28.550Z,5.30
2019-05-18T00:23:54.995Z,5.40
2019-05-18T00:26:21.495Z,5.07
2019-05-18T00:28:47.947Z,4.20
2019-05-18T00:31:14.433Z,5.20
2019-05-18T00:33:41.355Z,5.40
2019-05-18T00:36:07.861Z,4.93
2019-05-18T00:38:34.308Z,5.27
2019-05-18T00:41:01.880Z,4.97
2019-05-18T00:43:28.343Z,4.70
2019-05-18T00:45:54.828Z,5.07
2019-05-18T00:48:21.585Z,6.07
2019-05-18T00:50:48.107Z,5.43
2019-05-18T00:53:14.651Z,5.87
2019-05-18T00:55:42.440Z,5.93
2019-05-18T00:58:08.888Z,5.10
2019-05-18T01:00:35.507Z,4.50
2019-05-18T01:03:02.127Z,5.77
2019-05-18T01:05:28.580Z,5.53
2019-05-18T01:07:55.062Z,4.70
2019-05-18T01:10:21.862Z,5.07
2019-05-18T01:12:48.485Z,5.60
2019-05-18T01:15:15.220Z,4.63
2019-05-18T01:17:56.180Z,4.33
2019-05-18T01:20:10.088Z,4.97
2019-05-18T01:22:36.697Z,5.17
2019-05-18T01:25:04.295Z,4.50
2019-05-18T01:27:30.891Z,4.00
2019-05-18T01:29:57.337Z,4.53
2019-05-18T01:32:23.843Z,4.57
2019-05-18T01:34:50.383Z,5.73
2019-05-18T01:37:17.132Z,5.37
2019-05-18T01:39:43.839Z,5.20
2019-05-18T01:42:10.423Z,4.00
2019-05-18T01:44:37.130Z,4.40
2019-05-18T01:47:03.722Z,4.60
2019-05-18T01:49:30.226Z,4.57
2019-05-18T01:51:56.679Z,4.70
2019-05-18T01:54:23.274Z,4.50
2019-05-18T01:56:49.791Z,4.93
2019-05-18T01:59:16.306Z,4.30
2019-05-18T02:01:42.739Z,4.47
2019-05-18T02:04:09.259Z,4.77
2019-05-18T02:06:35.995Z,4.23
2019-05-18T02:09:04.476Z,4.07
2019-05-18T02:11:30.933Z,4.53
2019-05-18T02:13:57.373Z,4.73
2019-05-18T02:16:23.889Z,4.37
2019-05-18T02:18:50.436Z,4.23
2019-05-18T02:21:17.416Z,4.17
2019-05-18T02:23:43.877Z,4.20
2019-05-18T02:26:16.929Z,4.90
2019-05-18T02:28:43.398Z,3.97
2019-05-18T02:31:10.185Z,4.73
2019-05-18T02:33:37.035Z,4.00
2019-05-18T02:36:04.679Z,4.30
2019-05-18T02:38:31.163Z,3.63
2019-05-18T02:40:57.611Z,4.40
2019-05-18T02:43:24.100Z,3.23
2019-05-18T02:45:50.598Z,4.10
2019-05-18T02:48:17.539Z,4.13
2019-05-18T02:50:44.100Z,4.23
2019-05-18T02:53:10.590Z,4.40
2019-05-18T02:55:37.128Z,4.20
2019-05-18T02:58:03.855Z,4.53
2019-05-18T03:00:30.557Z,4.10
2019-05-18T03:02:57.071Z,4.47
2019-05-18T03:05:23.728Z,5.00
2019-05-18T03:07:50.205Z,4.90
2019-05-18T03:10:16.798Z,4.33
2019-05-18T03:12:43.354Z,4.10
2019-05-18T03:15:09.957Z,4.77
2019-05-18T03:17:36.539Z,4.70
2019-05-18T03:20:03.455Z,4.90
2019-05-18T03:22:30.054Z,4.90
2019-05-18T03:24:56.601Z,4.43
2019-05-18T03:27:23.378Z,4.70
2019-05-18T03:29:49.872Z,5.20
2019-05-18T03:32:16.397Z,4.43
2019-05-18T03:34:42.835Z,4.90
2019-05-18T03:37:09.339Z,5.57
2019-05-18T03:39:35.792Z,5.20
2019-05-18T03:42:02.281Z,5.07
2019-05-18T03:44:28.802Z,4.77
2019-05-18T03:46:55.237Z,4.83
2019-05-18T03:49:26.629Z,5.20
2019-05-18T03:51:50.645Z,5.07
2019-05-18T03:54:17.096Z,4.90
2019-05-18T03:56:43.584Z,5.10
2019-05-18T03:59:10.018Z,4.97
2019-05-18T04:01:36.457Z,3.90
2019-05-18T04:04:03.047Z,5.13
2019-05-18T04:06:30.021Z,6.30
2019-05-18T04:08:57.533Z,4.87
2019-05-18T04:11:24.066Z,4.97
2019-05-18T04:13:50.587Z,4.50
2019-05-18T04:16:17.026Z,5.60
2019-05-18T04:18:43.528Z,6.33
2019-05-18T04:21:10.274Z,6.80
2019-05-18T04:23:36.761Z,5.37
2019-05-18T04:26:03.358Z,6.17
2019-05-18T04:28:30.937Z,6.07
2019-05-18T04:30:57.651Z,6.03
2019-05-18T04:33:24.169Z,6.37
2019-05-18T04:35:50.683Z,5.60
2019-05-18T04:38:17.135Z,5.53
2019-05-18T04:40:43.632Z,5.57
2019-05-18T04:43:10.078Z,5.93
2019-05-18T04:45:36.563Z,4.90
2019-05-18T04:48:03.158Z,5.40
2019-05-18T04:50:29.670Z,6.07
2019-05-18T04:52:56.129Z,6.00
2019-05-18T04:55:22.657Z,5.10
2019-05-18T04:57:49.102Z,5.57
2019-05-18T05:00:20.359Z,6.20
2019-05-18T05:02:46.882Z,6.60
2019-05-18T05:05:13.661Z,6.47
2019-05-18T05:07:40.156Z,6.20
2019-05-18T05:10:07.057Z,6.47
2019-05-18T05:12:34.058Z,5.80
2019-05-18T05:15:00.880Z,5.97
2019-05-18T05:17:27.330Z,5.83
2019-05-18T05:19:53.805Z,5.73
2019-05-18T05:22:21.336Z,4.27
2019-05-18T05:24:47.819Z,4.67
2019-05-18T05:27:14.298Z,4.13
2019-05-18T05:29:40.791Z,4.47
2019-05-18T05:32:07.276Z,5.07
2019-05-18T05:34:33.974Z,4.17
2019-05-18T05:37:00.702Z,5.27
2019-05-18T05:39:27.191Z,5.30
2019-05-18T05:41:53.673Z,5.77
2019-05-18T05:44:20.177Z,4.80
2019-05-18T05:46:46.867Z,4.80
2019-05-18T05:49:13.467Z,5.17
2019-05-18T05:51:40.025Z,5.27
2019-05-18T05:54:06.496Z,4.10
2019-05-18T05:56:33.214Z,5.00
2019-05-18T05:58:59.744Z,5.40
2019-05-18T06:01:26.478Z,6.10
2019-05-18T06:03:53.290Z,5.87
2019-05-18T06:06:22.998Z,5.23
2019-05-18T06:08:53.948Z,6.23
2019-05-18T06:11:20.813Z,6.50
2019-05-18T06:13:47.397Z,6.50
2019-05-18T06:16:13.914Z,6.10
2019-05-18T06:18:41.462Z,5.30
2019-05-18T06:21:08.220Z,6.80
2019-05-18T06:23:34.704Z,6.10
2019-05-18T06:26:01.444Z,5.70
2019-05-18T06:28:28.327Z,6.07
2019-05-18T06:30:55.048Z,5.60
2019-05-18T06:33:21.785Z,6.00
2019-05-18T06:35:48.368Z,5.57
2019-05-18T06:38:15.144Z,5.87
2019-05-18T06:40:41.629Z,6.63
2019-05-18T06:43:08.157Z,5.87
2019-05-18T06:45:34.837Z,5.77
2019-05-18T06:48:01.966Z,5.60
2019-05-18T06:50:29.167Z,5.67
2019-05-18T06:52:55.933Z,5.90
2019-05-18T06:55:24.287Z,6.07
2019-05-18T06:57:50.984Z,6.07
2019-05-18T07:00:17.700Z,6.47
2019-05-18T07:02:44.186Z,6.60
2019-05-18T07:05:10.965Z,6.70
2019-05-18T07:07:37.689Z,6.83
2019-05-18T07:10:04.568Z,6.00
2019-05-18T07:12:31.093Z,5.33
2019-05-18T07:15:00.339Z,5.17
2019-05-18T07:17:26.261Z,6.80
2019-05-18T07:19:53.010Z,6.30
2019-05-18T07:22:19.497Z,5.93
2019-05-18T07:24:46.017Z,6.23
2019-05-18T07:27:12.521Z,4.93
2019-05-18T07:29:39.213Z,5.63
2019-05-18T07:32:05.935Z,6.10
2019-05-18T07:34:32.668Z,5.83
2019-05-18T07:36:59.166Z,6.27
2019-05-18T07:39:25.636Z,6.17
2019-05-18T07:41:52.215Z,6.20
2019-05-18T07:44:18.959Z,6.63
2019-05-18T07:46:45.458Z,6.43
2019-05-18T07:49:12.045Z,5.93
2019-05-18T07:51:38.513Z,6.97
2019-05-18T07:54:05.251Z,5.60
2019-05-18T07:56:31.747Z,5.67
2019-05-18T07:58:58.730Z,6.60
2019-05-18T08:01:25.221Z,6.97
2019-05-18T08:03:51.793Z,6.70
2019-05-18T08:06:18.295Z,5.73
2019-05-18T08:08:45.594Z,6.83
2019-05-18T08:11:12.317Z,7.78
2019-05-18T08:13:39.252Z,7.73
2019-05-18T08:16:05.816Z,6.60
2019-05-18T08:18:32.263Z,6.57
2019-05-18T08:20:58.737Z,7.27
2019-05-18T08:23:25.298Z,8.03
2019-05-18T08:25:52.038Z,7.67
2019-05-18T08:28:19.531Z,8.03
2019-05-18T08:30:45.987Z,9.18
2019-05-18T08:33:13.335Z,7.90
2019-05-18T08:35:39.891Z,8.15
2019-05-18T08:38:06.678Z,9.40
2019-05-18T08:40:34.281Z,8.40
2019-05-18T08:43:01.693Z,8.13
2019-05-18T08:45:28.403Z,8.23
2019-05-18T08:47:54.886Z,8.15
2019-05-18T08:50:25.559Z,6.83
2019-05-18T08:52:52.098Z,7.72
2019-05-18T08:55:18.675Z,7.72
2019-05-18T08:57:45.216Z,7.08
2019-05-18T09:00:12.211Z,7.45
2019-05-18T09:02:38.720Z,7.87
2019-05-18T09:05:06.169Z,8.55
2019-05-18T09:07:32.889Z,8.45
2019-05-18T09:09:59.446Z,8.40
2019-05-18T09:12:26.008Z,8.25
2019-05-18T09:14:52.550Z,8.68
2019-05-18T09:17:19.087Z,8.05
2019-05-18T09:19:45.845Z,7.92
2019-05-18T09:22:22.831Z,7.62
2019-05-18T09:24:41.177Z,7.00
2019-05-18T09:27:07.806Z,6.62
2019-05-18T09:29:34.297Z,6.92
2019-05-18T09:32:01.278Z,6.53
2019-05-18T09:34:27.740Z,7.00
2019-05-18T09:36:54.812Z,7.08
2019-05-18T09:39:21.439Z,7.05
2019-05-18T09:41:47.895Z,6.67
2019-05-18T09:44:16.532Z,6.35
2019-05-18T09:46:43.407Z,6.05
2019-05-18T09:49:10.058Z,7.60
2019-05-18T09:51:36.497Z,6.55
2019-05-18T09:54:03.133Z,8.78
2019-05-18T09:56:30.706Z,6.00
2019-05-18T09:58:57.202Z,7.53
2019-05-18T10:01:24.026Z,6.45
2019-05-18T10:03:50.755Z,6.83
2019-05-18T10:06:17.235Z,5.70
2019-05-18T10:08:44.063Z,6.05
2019-05-18T10:11:10.558Z,6.15
2019-05-18T10:13:37.719Z,6.22
2019-05-18T10:16:04.165Z,6.28
2019-05-18T10:18:30.658Z,5.92
2019-05-18T10:20:57.232Z,5.45
2019-05-18T10:23:23.839Z,4.92
2019-05-18T10:25:50.309Z,5.72
2019-05-18T10:28:16.800Z,4.95
2019-05-18T10:30:43.246Z,4.35
2019-05-18T10:33:10.869Z,4.35
2019-05-18T10:35:37.365Z,3.83
2019-05-18T10:38:04.070Z,3.52
2019-05-18T10:40:30.912Z,4.25
2019-05-18T10:42:57.387Z,4.17
2019-05-18T10:45:24.526Z,4.10
2019-05-18T10:47:51.021Z,3.85
2019-05-18T10:50:17.674Z,3.52
2019-05-18T10:52:44.191Z,3.92
2019-05-18T10:55:11.358Z,3.45
2019-05-18T10:57:38.250Z,3.58
2019-05-18T11:00:05.834Z,2.77
2019-05-18T11:02:32.478Z,3.40
2019-05-18T11:04:59.053Z,3.00
2019-05-18T11:07:28.834Z,3.35
2019-05-18T11:09:53.947Z,3.15
2019-05-18T11:12:20.465Z,3.00
2019-05-18T11:14:46.947Z,3.45
2019-05-18T11:17:13.529Z,3.00
2019-05-18T11:19:40.299Z,3.20
2019-05-18T11:22:06.840Z,3.70
2019-05-18T11:24:33.295Z,3.70
2019-05-18T11:26:59.804Z,3.67
2019-05-18T11:29:26.328Z,3.33
2019-05-18T11:31:52.845Z,3.08
2019-05-18T11:34:19.380Z,3.35
2019-05-18T11:36:46.339Z,3.17
2019-05-18T11:39:12.847Z,3.00
2019-05-18T11:41:39.355Z,2.90
2019-05-18T11:44:05.919Z,2.85
2019-05-18T11:46:32.391Z,3.42
2019-05-18T11:48:58.902Z,3.50
2019-05-18T11:51:26.078Z,2.40
2019-05-18T11:53:58.182Z,2.62
2019-05-18T11:56:21.122Z,2.90
2019-05-18T11:58:47.631Z,2.70
2019-05-18T12:01:14.103Z,3.42
2019-05-18T12:03:40.729Z,3.58
2019-05-18T12:06:07.328Z,2.95
2019-05-18T12:08:33.941Z,2.80
2019-05-18T12:11:01.247Z,2.83
2019-05-18T12:13:27.753Z,2.42
2019-05-18T12:15:54.241Z,3.65
2019-05-18T12:18:20.695Z,2.50
2019-05-18T12:20:47.384Z,2.87
2019-05-18T12:23:13.921Z,3.27
2019-05-18T12:25:40.394Z,3.47
2019-05-18T12:28:06.945Z,2.62
2019-05-18T12:30:33.489Z,3.02
2019-05-18T12:33:01.934Z,2.60
2019-05-18T12:35:28.719Z,2.45
2019-05-18T12:37:55.503Z,2.67
2019-05-18T12:40:22.133Z,3.30
2019-05-18T12:42:48.675Z,2.80
2019-05-18T12:45:15.841Z,2.55
2019-05-18T12:47:43.428Z,3.50
2019-05-18T12:50:10.362Z,2.75
2019-05-18T12:52:36.945Z,2.80
2019-05-18T12:55:03.599Z,2.85
2019-05-18T12:57:30.395Z,2.77
2019-05-18T12:59:56.978Z,3.08
2019-05-18T13:02:23.499Z,3.02
2019-05-18T13:04:50.067Z,2.65
2019-05-18T13:07:17.163Z,3.27
2019-05-18T13:09:43.842Z,2.60
2019-05-18T13:12:11.797Z,2.90
2019-05-18T13:14:38.430Z,2.87
2019-05-18T13:17:05.012Z,2.70
2019-05-18T13:19:31.832Z,2.23
2019-05-18T13:21:58.313Z,2.52
2019-05-18T13:24:24.965Z,3.87
2019-05-18T13:26:51.438Z,2.58
2019-05-18T13:29:18.219Z,2.80
2019-05-18T13:31:44.770Z,2.62
2019-05-18T13:34:11.254Z,2.75
2019-05-18T13:36:38.804Z,2.80
2019-05-18T13:39:06.065Z,2.30
2019-05-18T13:41:32.590Z,2.72
2019-05-18T13:43:59.037Z,3.22
2019-05-18T13:46:25.570Z,2.87
2019-05-18T13:48:52.021Z,3.17
2019-05-18T13:51:18.611Z,2.90
2019-05-18T13:53:45.337Z,2.85
2019-05-18T13:56:12.082Z,2.92
2019-05-18T13:58:38.541Z,2.87
2019-05-18T14:01:11.072Z,3.15
2019-05-18T14:03:39.455Z,2.58
2019-05-18T14:06:06.045Z,3.70
2019-05-18T14:08:34.139Z,2.95
2019-05-18T14:11:05.318Z,3.12
2019-05-18T14:13:38.019Z,3.70
2019-05-18T14:16:05.020Z,3.83
2019-05-18T14:18:39.772Z,3.47
2019-05-18T14:21:08.084Z,3.47
2019-05-18T14:23:36.802Z,3.42
2019-05-18T14:26:03.572Z,3.27
2019-05-18T14:28:37.166Z,3.45
2019-05-18T14:31:05.091Z,3.50
2019-05-18T14:33:31.691Z,3.50
2019-05-18T14:35:58.107Z,3.20
2019-05-18T14:38:24.830Z,3.30
2019-05-18T14:40:51.325Z,3.75
2019-05-18T14:43:17.886Z,3.92
2019-05-18T14:45:44.433Z,3.75
2019-05-18T14:48:10.995Z,3.45
2019-05-18T14:50:39.569Z,3.47
2019-05-18T14:53:06.019Z,3.52
2019-05-18T14:55:34.192Z,3.33
2019-05-18T14:58:00.711Z,3.42
2019-05-18T15:00:27.554Z,3.20
2019-05-18T15:02:56.923Z,3.20
2019-05-18T15:05:24.132Z,3.00
2019-05-18T15:07:51.492Z,2.90
2019-05-18T15:10:18.559Z,3.40
2019-05-18T15:12:49.167Z,3.40
2019-05-18T15:15:16.604Z,3.12
2019-05-18T15:17:43.059Z,3.08
2019-05-18T15:20:10.342Z,3.27
2019-05-18T15:22:37.903Z,3.27
2019-05-18T15:25:04.871Z,3.80
2019-05-18T15:27:32.386Z,3.80
2019-05-18T15:29:58.879Z,3.58
2019-05-18T15:32:25.405Z,3.22
2019-05-18T15:34:51.863Z,2.90
2019-05-18T15:37:18.321Z,3.10
2019-05-18T15:39:44.896Z,4.05
2019-05-18T15:42:11.627Z,4.25
2019-05-18T15:44:38.142Z,3.47
2019-05-18T15:47:04.834Z,3.33
2019-05-18T15:49:31.661Z,3.47
2019-05-18T15:51:58.243Z,3.35
2019-05-18T15:54:26.844Z,3.55
2019-05-18T15:56:53.367Z,3.67
2019-05-18T15:59:21.069Z,2.97
2019-05-18T16:01:47.518Z,3.10
2019-05-18T16:04:14.286Z,3.23
2019-05-18T16:06:40.761Z,4.00
2019-05-18T16:09:08.229Z,3.85
2019-05-18T16:11:34.985Z,2.90
2019-05-18T16:14:04.257Z,3.77
2019-05-18T16:16:30.693Z,2.93
2019-05-18T16:18:57.181Z,3.73
2019-05-18T16:21:23.626Z,2.77
2019-05-18T16:23:50.137Z,3.00
2019-05-18T16:26:21.604Z,3.20
2019-05-18T16:28:45.531Z,2.87
2019-05-18T16:31:12.098Z,3.40
2019-05-18T16:33:38.790Z,3.10
2019-05-18T16:36:05.305Z,2.93
2019-05-18T16:38:31.788Z,3.83
2019-05-18T16:41:47.196Z,3.40
2019-05-18T16:44:14.181Z,3.20
2019-05-18T16:46:40.755Z,3.70
2019-05-18T16:49:08.554Z,3.03
2019-05-18T16:51:36.171Z,3.90
2019-05-18T16:54:03.690Z,3.10
2019-05-18T16:56:35.307Z,3.50
2019-05-18T16:58:59.318Z,4.43
2019-05-18T17:01:25.833Z,2.70
2019-05-18T17:03:52.428Z,3.60
2019-05-18T17:06:19.279Z,4.00
2019-05-18T17:08:48.857Z,2.90
2019-05-18T17:11:16.557Z,2.73
2019-05-18T17:13:43.261Z,3.40
2019-05-18T17:16:09.936Z,2.77
2019-05-18T17:18:36.537Z,3.23
2019-05-18T17:21:03.394Z,13.07
2019-05-18T17:23:30.116Z,3.20
2019-05-18T17:25:56.721Z,9.70
2019-05-18T17:28:24.315Z,3.30
2019-05-18T17:30:50.861Z,3.47
2019-05-18T17:33:17.404Z,3.60
2019-05-18T17:35:59.292Z,3.33
2019-05-18T17:38:12.569Z,3.00
2019-05-18T17:40:39.224Z,3.30
2019-05-18T17:43:06.959Z,3.10
2019-05-18T17:45:33.733Z,3.63
2019-05-18T17:48:00.268Z,3.03
2019-05-18T17:50:27.011Z,3.00
2019-05-18T17:52:54.713Z,3.53
2019-05-18T17:55:21.614Z,3.20
2019-05-18T17:57:48.243Z,2.87
2019-05-18T18:00:16.393Z,3.30
2019-05-18T18:02:43.314Z,3.40
2019-05-18T18:05:10.221Z,3.17
2019-05-18T18:07:43.561Z,3.70
2019-05-18T18:10:13.050Z,3.30
2019-05-18T18:12:41.462Z,3.40
2019-05-18T18:15:08.678Z,3.53
2019-05-18T18:17:38.243Z,3.10
2019-05-18T18:20:08.113Z,3.57
2019-05-18T18:22:36.791Z,3.83
2019-05-18T18:25:04.627Z,3.07
2019-05-18T18:27:32.141Z,3.33
2019-05-18T18:29:59.244Z,3.60
2019-05-18T18:32:26.959Z,3.87
2019-05-18T18:34:53.931Z,4.20
2019-05-18T18:37:23.122Z,3.93
2019-05-18T18:39:49.974Z,4.47
2019-05-18T18:42:16.795Z,3.77
2019-05-18T18:44:43.812Z,4.07
2019-05-18T18:47:12.206Z,3.40
2019-05-18T18:49:39.156Z,3.93
2019-05-18T18:52:07.428Z,4.47
2019-05-18T18:54:34.331Z,4.23
2019-05-18T18:57:01.574Z,4.57
2019-05-18T18:59:31.277Z,3.70
2019-05-18T19:02:00.251Z,4.13
2019-05-18T19:04:27.329Z,4.33
2019-05-18T19:06:54.844Z,4.00
2019-05-18T19:09:22.350Z,4.47
2019-05-18T19:11:49.560Z,4.40
2019-05-18T19:14:16.544Z,4.73
2019-05-18T19:16:43.912Z,4.40
2019-05-18T19:19:18.532Z,3.53
2019-05-18T19:21:52.646Z,4.27
2019-05-18T19:25:05.713Z,3.47
2019-05-18T19:27:52.721Z,3.30
2019-05-18T19:30:16.950Z,3.43
2019-05-18T19:32:44.524Z,2.93
2019-05-18T19:35:11.743Z,3.37
2019-05-18T19:37:38.898Z,2.40
2019-05-18T19:40:08.124Z,3.10
2019-05-18T19:42:36.956Z,5.27
2019-05-18T19:45:10.005Z,3.40
2019-05-18T19:47:39.987Z,3.00
2019-05-18T19:50:07.441Z,2.80
2019-05-18T19:52:36.414Z,3.33
2019-05-18T19:55:06.007Z,3.13
2019-05-18T19:57:40.374Z,3.07
2019-05-18T20:00:11.182Z,3.40
2019-05-18T20:03:04.531Z,2.73
2019-05-18T20:05:35.358Z,3.13
2019-05-18T20:08:03.218Z,3.23
2019-05-18T20:10:32.790Z,3.23
2019-05-18T20:12:59.996Z,3.17
2019-05-18T20:15:28.093Z,3.07
2019-05-18T20:17:57.621Z,3.10
2019-05-18T20:20:28.121Z,3.20
2019-05-18T20:22:56.302Z,2.97
2019-05-18T20:25:24.889Z,3.17
2019-05-18T20:27:51.786Z,3.57
2019-05-18T20:30:27.566Z,3.00
2019-05-18T20:32:55.170Z,3.30
2019-05-18T20:35:30.620Z,2.80
2019-05-18T20:37:58.669Z,3.53
2019-05-18T20:40:25.469Z,3.30
2019-05-18T20:42:52.636Z,3.33
2019-05-18T20:45:22.973Z,3.70
2019-05-18T20:47:49.575Z,3.47
2019-05-18T20:50:16.354Z,3.20
2019-05-18T20:52:44.846Z,3.30
2019-05-18T20:55:12.232Z,3.60
2019-05-18T20:57:39.425Z,3.67
2019-05-18T21:00:17.845Z,3.00
2019-05-18T21:02:45.630Z,3.30
2019-05-18T21:05:12.344Z,3.70
2019-05-18T21:07:43.243Z,2.87
2019-05-18T21:10:10.551Z,3.10
2019-05-18T21:12:37.153Z,3.40
2019-05-18T21:15:05.248Z,2.93
2019-05-18T21:17:35.667Z,2.93
2019-05-18T21:20:02.499Z,3.50
2019-05-18T21:22:29.457Z,3.33
2019-05-18T21:24:55.980Z,3.53
2019-05-18T21:27:22.646Z,3.87
2019-05-18T21:29:49.115Z,3.73
2019-05-18T21:32:15.999Z,3.33
2019-05-18T21:34:42.744Z,3.57
2019-05-18T21:37:09.273Z,4.17
2019-05-18T21:39:36.123Z,3.77
2019-05-18T21:42:03.671Z,3.73
2019-05-18T21:44:30.290Z,3.90
2019-05-18T21:46:57.096Z,4.13
2019-05-18T21:49:23.560Z,3.93
2019-05-18T21:51:50.083Z,3.80
2019-05-18T21:54:16.629Z,3.83
2019-05-18T21:56:43.403Z,3.60
2019-05-18T21:59:12.163Z,4.10
2019-05-18T22:01:38.300Z,3.93
2019-05-18T22:04:04.864Z,4.20
2019-05-18T22:06:31.533Z,4.20
2019-05-18T22:08:58.036Z,3.97
2019-05-18T22:11:24.571Z,4.43
2019-05-18T22:13:51.089Z,4.17
2019-05-18T22:16:17.704Z,4.20
2019-05-18T22:18:44.211Z,3.90
2019-05-18T22:21:11.033Z,4.07
2019-05-18T22:23:38.577Z,3.50
2019-05-18T22:26:06.279Z,4.27
2019-05-18T22:28:32.899Z,4.50
2019-05-18T22:30:59.438Z,4.67
2019-05-18T22:33:26.038Z,4.50
2019-05-18T22:35:52.653Z,4.67
2019-05-18T22:38:19.382Z,4.10
2019-05-18T22:40:46.024Z,4.20
2019-05-18T22:43:12.765Z,4.53
2019-05-18T22:45:39.388Z,4.53
2019-05-18T22:48:06.553Z,4.23
2019-05-18T22:50:33.041Z,5.30
2019-05-18T22:52:59.582Z,5.17
2019-05-18T22:55:26.247Z,5.17
2019-05-18T22:57:52.789Z,5.97
2019-05-18T23:00:20.274Z,5.50
2019-05-18T23:02:47.042Z,6.40
2019-05-18T23:05:13.884Z,5.37
2019-05-18T23:07:40.488Z,6.33
2019-05-18T23:10:07.143Z,6.40
2019-05-18T23:12:33.736Z,6.20
2019-05-18T23:15:00.279Z,6.53
2019-05-18T23:17:26.853Z,5.90
2019-05-18T23:19:53.625Z,6.87
2019-05-18T23:22:20.095Z,6.17
2019-05-18T23:24:46.641Z,6.40
2019-05-18T23:27:13.102Z,7.23
2019-05-18T23:29:39.715Z,7.20
2019-05-18T23:32:06.279Z,7.80
2019-05-18T23:34:33.855Z,7.83
2019-05-18T23:37:01.036Z,9.60
2019-05-18T23:39:27.554Z,7.50
2019-05-18T23:41:54.136Z,8.10
2019-05-18T23:44:20.963Z,8.60
2019-05-18T23:46:47.926Z,8.10
2019-05-18T23:49:14.558Z,7.90
2019-05-18T23:51:41.105Z,8.73
2019-05-18T23:54:08.083Z,9.43
2019-05-18T23:56:34.602Z,10.90
2019-05-18T23:59:02.228Z,10.33
